sensor_id;sensor_type;location;lat;lon;timestamp;P1;durP1;ratioP1;P2;durP2;ratioP2
6485;SDS011;3276;48.490;9.222;2023-09-19T00:01:34;2.00;;;1.00;;
6485;SDS011;3276;48.490;9.222;2023-09-19T00:04:00;2.53;;;1.03;;
6485;SDS011;3276;48.490;9.222;2023-09-19T00:06:28;1.90;;;0.80;;
6485;SDS011;3276;48.490;9.222;2023-09-19T00:08:56;2.30;;;0.80;;
6485;SDS011;3276;48.490;9.222;2023-09-19T00:11:24;1.60;;;0.70;;
6485;SDS011;3276;48.490;9.222;2023-09-19T00:13:51;1.50;;;0.60;;
6485;SDS011;3276;48.490;9.222;2023-09-19T00:16:17;2.17;;;1.07;;
6485;SDS011;3276;48.490;9.222;2023-09-19T00:18:44;1.70;;;0.63;;
6485;SDS011;3276;48.490;9.222;2023-09-19T00:21:09;1.50;;;0.60;;
6485;SDS011;3276;48.490;9.222;2023-09-19T00:23:35;1.60;;;0.80;;
6485;SDS011;3276;48.490;9.222;2023-09-19T00:26:01;1.70;;;0.60;;
6485;SDS011;3276;48.490;9.222;2023-09-19T00:28:27;1.70;;;0.80;;
6485;SDS011;3276;48.490;9.222;2023-09-19T00:30:56;1.90;;;0.70;;
6485;SDS011;3276;48.490;9.222;2023-09-19T00:33:22;1.80;;;0.70;;
6485;SDS011;3276;48.490;9.222;2023-09-19T00:35:48;1.77;;;0.77;;
6485;SDS011;3276;48.490;9.222;2023-09-19T00:38:17;2.27;;;0.93;;
6485;SDS011;3276;48.490;9.222;2023-09-19T00:40:46;2.53;;;0.73;;
6485;SDS011;3276;48.490;9.222;2023-09-19T00:43:12;1.63;;;0.60;;
6485;SDS011;3276;48.490;9.222;2023-09-19T00:45:38;3.33;;;0.77;;
6485;SDS011;3276;48.490;9.222;2023-09-19T00:48:08;1.60;;;0.90;;
6485;SDS011;3276;48.490;9.222;2023-09-19T00:50:34;1.90;;;0.83;;
6485;SDS011;3276;48.490;9.222;2023-09-19T00:53:01;4.03;;;0.80;;
6485;SDS011;3276;48.490;9.222;2023-09-19T00:55:33;2.17;;;0.80;;
6485;SDS011;3276;48.490;9.222;2023-09-19T00:57:59;1.50;;;0.70;;
6485;SDS011;3276;48.490;9.222;2023-09-19T01:00:25;1.60;;;0.67;;
6485;SDS011;3276;48.490;9.222;2023-09-19T01:02:51;1.47;;;0.63;;
6485;SDS011;3276;48.490;9.222;2023-09-19T01:05:17;1.90;;;0.90;;
6485;SDS011;3276;48.490;9.222;2023-09-19T01:07:44;1.73;;;0.60;;
6485;SDS011;3276;48.490;9.222;2023-09-19T01:10:11;2.47;;;0.97;;
6485;SDS011;3276;48.490;9.222;2023-09-19T01:27:00;1.90;;;1.03;;
6485;SDS011;3276;48.490;9.222;2023-09-19T01:29:49;1.60;;;0.73;;
6485;SDS011;3276;48.490;9.222;2023-09-19T01:32:16;2.27;;;1.13;;
6485;SDS011;3276;48.490;9.222;2023-09-19T01:34:47;1.80;;;0.70;;
6485;SDS011;3276;48.490;9.222;2023-09-19T01:37:14;1.77;;;0.73;;
6485;SDS011;3276;48.490;9.222;2023-09-19T01:39:44;2.27;;;0.67;;
6485;SDS011;3276;48.490;9.222;2023-09-19T01:45:13;2.13;;;1.20;;
6485;SDS011;3276;48.490;9.222;2023-09-19T01:47:50;1.70;;;0.80;;
6485;SDS011;3276;48.490;9.222;2023-09-19T01:53:28;2.50;;;1.03;;
6485;SDS011;3276;48.490;9.222;2023-09-19T01:56:00;2.73;;;1.00;;
6485;SDS011;3276;48.490;9.222;2023-09-19T01:58:41;2.00;;;0.90;;
6485;SDS011;3276;48.490;9.222;2023-09-19T02:01:11;1.80;;;0.80;;
6485;SDS011;3276;48.490;9.222;2023-09-19T02:03:42;4.50;;;1.17;;
6485;SDS011;3276;48.490;9.222;2023-09-19T02:06:13;2.60;;;1.07;;
6485;SDS011;3276;48.490;9.222;2023-09-19T02:08:42;1.93;;;1.07;;
6485;SDS011;3276;48.490;9.222;2023-09-19T02:11:08;1.60;;;0.63;;
6485;SDS011;3276;48.490;9.222;2023-09-19T02:13:33;2.13;;;1.10;;
6485;SDS011;3276;48.490;9.222;2023-09-19T02:15:59;2.40;;;1.10;;
6485;SDS011;3276;48.490;9.222;2023-09-19T02:18:25;2.57;;;1.00;;
6485;SDS011;3276;48.490;9.222;2023-09-19T02:20:52;2.90;;;0.97;;
6485;SDS011;3276;48.490;9.222;2023-09-19T02:23:19;1.97;;;0.67;;
6485;SDS011;3276;48.490;9.222;2023-09-19T02:25:54;2.80;;;1.07;;
6485;SDS011;3276;48.490;9.222;2023-09-19T02:28:21;1.63;;;0.80;;
6485;SDS011;3276;48.490;9.222;2023-09-19T02:30:47;2.10;;;1.10;;
6485;SDS011;3276;48.490;9.222;2023-09-19T02:33:16;2.07;;;1.03;;
6485;SDS011;3276;48.490;9.222;2023-09-19T02:35:44;3.13;;;1.03;;
6485;SDS011;3276;48.490;9.222;2023-09-19T02:38:11;2.63;;;1.50;;
6485;SDS011;3276;48.490;9.222;2023-09-19T02:40:37;3.07;;;1.33;;
6485;SDS011;3276;48.490;9.222;2023-09-19T02:43:03;4.10;;;1.30;;
6485;SDS011;3276;48.490;9.222;2023-09-19T02:45:29;2.00;;;0.83;;
6485;SDS011;3276;48.490;9.222;2023-09-19T02:47:56;2.13;;;1.30;;
6485;SDS011;3276;48.490;9.222;2023-09-19T02:50:22;2.40;;;1.30;;
6485;SDS011;3276;48.490;9.222;2023-09-19T02:52:47;2.50;;;1.20;;
6485;SDS011;3276;48.490;9.222;2023-09-19T02:55:13;2.57;;;1.30;;
6485;SDS011;3276;48.490;9.222;2023-09-19T02:57:52;2.03;;;0.97;;
6485;SDS011;3276;48.490;9.222;2023-09-19T03:00:21;2.20;;;0.90;;
6485;SDS011;3276;48.490;9.222;2023-09-19T03:02:48;2.47;;;1.00;;
6485;SDS011;3276;48.490;9.222;2023-09-19T03:05:14;2.30;;;1.03;;
6485;SDS011;3276;48.490;9.222;2023-09-19T03:07:40;2.37;;;1.07;;
6485;SDS011;3276;48.490;9.222;2023-09-19T03:10:08;5.20;;;1.23;;
6485;SDS011;3276;48.490;9.222;2023-09-19T03:12:34;2.10;;;1.00;;
6485;SDS011;3276;48.490;9.222;2023-09-19T03:14:59;2.80;;;1.47;;
6485;SDS011;3276;48.490;9.222;2023-09-19T03:17:25;2.20;;;1.10;;
6485;SDS011;3276;48.490;9.222;2023-09-19T03:19:51;2.10;;;0.90;;
6485;SDS011;3276;48.490;9.222;2023-09-19T03:22:16;4.13;;;1.40;;
6485;SDS011;3276;48.490;9.222;2023-09-19T03:24:43;3.60;;;1.77;;
6485;SDS011;3276;48.490;9.222;2023-09-19T03:27:11;1.70;;;1.07;;
6485;SDS011;3276;48.490;9.222;2023-09-19T03:29:41;1.90;;;0.90;;
6485;SDS011;3276;48.490;9.222;2023-09-19T03:32:09;2.10;;;1.10;;
6485;SDS011;3276;48.490;9.222;2023-09-19T03:34:36;6.00;;;1.30;;
6485;SDS011;3276;48.490;9.222;2023-09-19T03:37:08;3.60;;;1.00;;
6485;SDS011;3276;48.490;9.222;2023-09-19T03:39:34;2.13;;;1.20;;
6485;SDS011;3276;48.490;9.222;2023-09-19T03:42:00;2.77;;;1.10;;
6485;SDS011;3276;48.490;9.222;2023-09-19T03:44:26;1.93;;;1.20;;
6485;SDS011;3276;48.490;9.222;2023-09-19T03:46:51;2.00;;;1.07;;
6485;SDS011;3276;48.490;9.222;2023-09-19T03:49:17;3.03;;;1.33;;
6485;SDS011;3276;48.490;9.222;2023-09-19T03:51:42;2.03;;;1.00;;
6485;SDS011;3276;48.490;9.222;2023-09-19T03:54:08;2.07;;;1.00;;
6485;SDS011;3276;48.490;9.222;2023-09-19T03:56:34;2.73;;;1.60;;
6485;SDS011;3276;48.490;9.222;2023-09-19T03:58:59;2.70;;;1.03;;
6485;SDS011;3276;48.490;9.222;2023-09-19T04:01:25;7.20;;;1.80;;
6485;SDS011;3276;48.490;9.222;2023-09-19T04:03:52;3.90;;;1.50;;
6485;SDS011;3276;48.490;9.222;2023-09-19T04:06:18;1.97;;;1.03;;
6485;SDS011;3276;48.490;9.222;2023-09-19T04:08:44;3.10;;;1.43;;
6485;SDS011;3276;48.490;9.222;2023-09-19T04:11:11;7.03;;;2.03;;
6485;SDS011;3276;48.490;9.222;2023-09-19T04:13:36;2.77;;;1.50;;
6485;SDS011;3276;48.490;9.222;2023-09-19T04:16:02;2.60;;;2.00;;
6485;SDS011;3276;48.490;9.222;2023-09-19T04:18:35;2.83;;;1.40;;
6485;SDS011;3276;48.490;9.222;2023-09-19T04:21:03;2.77;;;1.60;;
6485;SDS011;3276;48.490;9.222;2023-09-19T04:23:30;2.57;;;1.63;;
6485;SDS011;3276;48.490;9.222;2023-09-19T04:25:56;3.53;;;1.57;;
6485;SDS011;3276;48.490;9.222;2023-09-19T04:28:22;3.33;;;2.00;;
6485;SDS011;3276;48.490;9.222;2023-09-19T04:30:49;2.07;;;1.33;;
6485;SDS011;3276;48.490;9.222;2023-09-19T04:33:15;2.20;;;1.43;;
6485;SDS011;3276;48.490;9.222;2023-09-19T04:35:41;2.47;;;1.30;;
6485;SDS011;3276;48.490;9.222;2023-09-19T04:38:10;2.47;;;1.27;;
6485;SDS011;3276;48.490;9.222;2023-09-19T04:40:36;2.37;;;1.43;;
6485;SDS011;3276;48.490;9.222;2023-09-19T04:43:04;3.03;;;1.27;;
6485;SDS011;3276;48.490;9.222;2023-09-19T04:45:31;3.30;;;1.73;;
6485;SDS011;3276;48.490;9.222;2023-09-19T04:47:57;2.63;;;1.57;;
6485;SDS011;3276;48.490;9.222;2023-09-19T04:50:23;2.57;;;1.63;;
6485;SDS011;3276;48.490;9.222;2023-09-19T04:52:51;2.90;;;1.57;;
6485;SDS011;3276;48.490;9.222;2023-09-19T04:55:18;2.10;;;1.50;;
6485;SDS011;3276;48.490;9.222;2023-09-19T04:57:45;2.70;;;1.60;;
6485;SDS011;3276;48.490;9.222;2023-09-19T05:00:16;2.47;;;1.40;;
6485;SDS011;3276;48.490;9.222;2023-09-19T05:02:44;2.73;;;1.40;;
6485;SDS011;3276;48.490;9.222;2023-09-19T05:05:11;2.30;;;0.97;;
6485;SDS011;3276;48.490;9.222;2023-09-19T05:07:39;2.13;;;1.30;;
6485;SDS011;3276;48.490;9.222;2023-09-19T05:10:06;3.67;;;1.90;;
6485;SDS011;3276;48.490;9.222;2023-09-19T05:12:35;2.90;;;1.77;;
6485;SDS011;3276;48.490;9.222;2023-09-19T05:15:02;6.20;;;1.93;;
6485;SDS011;3276;48.490;9.222;2023-09-19T05:17:28;5.60;;;1.80;;
6485;SDS011;3276;48.490;9.222;2023-09-19T05:19:54;2.30;;;1.53;;
6485;SDS011;3276;48.490;9.222;2023-09-19T05:22:20;7.10;;;1.80;;
6485;SDS011;3276;48.490;9.222;2023-09-19T05:24:46;4.17;;;2.20;;
6485;SDS011;3276;48.490;9.222;2023-09-19T05:27:13;3.20;;;1.67;;
6485;SDS011;3276;48.490;9.222;2023-09-19T05:29:40;2.23;;;1.10;;
6485;SDS011;3276;48.490;9.222;2023-09-19T05:32:06;3.30;;;1.50;;
6485;SDS011;3276;48.490;9.222;2023-09-19T05:34:32;2.37;;;1.20;;
6485;SDS011;3276;48.490;9.222;2023-09-19T05:36:58;2.53;;;1.37;;
6485;SDS011;3276;48.490;9.222;2023-09-19T05:39:24;2.93;;;1.87;;
6485;SDS011;3276;48.490;9.222;2023-09-19T05:41:50;3.40;;;1.33;;
6485;SDS011;3276;48.490;9.222;2023-09-19T05:44:16;3.83;;;1.63;;
6485;SDS011;3276;48.490;9.222;2023-09-19T05:46:42;5.40;;;1.70;;
6485;SDS011;3276;48.490;9.222;2023-09-19T05:49:08;2.67;;;1.33;;
6485;SDS011;3276;48.490;9.222;2023-09-19T05:51:34;3.83;;;1.37;;
6485;SDS011;3276;48.490;9.222;2023-09-19T05:54:00;3.60;;;2.00;;
6485;SDS011;3276;48.490;9.222;2023-09-19T05:56:26;2.57;;;1.10;;
6485;SDS011;3276;48.490;9.222;2023-09-19T05:58:52;1.70;;;0.80;;
6485;SDS011;3276;48.490;9.222;2023-09-19T06:01:18;2.10;;;1.00;;
6485;SDS011;3276;48.490;9.222;2023-09-19T06:03:44;3.80;;;0.80;;
6485;SDS011;3276;48.490;9.222;2023-09-19T06:06:10;2.90;;;1.10;;
6485;SDS011;3276;48.490;9.222;2023-09-19T06:08:36;2.60;;;0.83;;
6485;SDS011;3276;48.490;9.222;2023-09-19T06:11:02;1.80;;;0.80;;
6485;SDS011;3276;48.490;9.222;2023-09-19T06:13:32;2.50;;;1.07;;
6485;SDS011;3276;48.490;9.222;2023-09-19T06:15:58;1.80;;;0.80;;
6485;SDS011;3276;48.490;9.222;2023-09-19T06:18:29;2.37;;;1.27;;
6485;SDS011;3276;48.490;9.222;2023-09-19T06:20:58;2.07;;;0.97;;
6485;SDS011;3276;48.490;9.222;2023-09-19T06:23:24;2.73;;;1.60;;
6485;SDS011;3276;48.490;9.222;2023-09-19T06:25:52;3.50;;;1.30;;
6485;SDS011;3276;48.490;9.222;2023-09-19T06:28:18;5.57;;;1.57;;
6485;SDS011;3276;48.490;9.222;2023-09-19T06:30:49;2.80;;;1.37;;
6485;SDS011;3276;48.490;9.222;2023-09-19T06:33:14;6.13;;;2.00;;
6485;SDS011;3276;48.490;9.222;2023-09-19T06:35:42;2.90;;;0.97;;
6485;SDS011;3276;48.490;9.222;2023-09-19T06:38:09;2.73;;;0.90;;
6485;SDS011;3276;48.490;9.222;2023-09-19T06:40:38;1.63;;;0.90;;
6485;SDS011;3276;48.490;9.222;2023-09-19T06:43:05;2.57;;;1.20;;
6485;SDS011;3276;48.490;9.222;2023-09-19T06:45:31;2.57;;;1.10;;
6485;SDS011;3276;48.490;9.222;2023-09-19T06:47:57;2.70;;;1.10;;
6485;SDS011;3276;48.490;9.222;2023-09-19T06:50:25;4.17;;;1.63;;
6485;SDS011;3276;48.490;9.222;2023-09-19T06:52:52;1.73;;;0.80;;
6485;SDS011;3276;48.490;9.222;2023-09-19T06:55:22;3.80;;;1.47;;
6485;SDS011;3276;48.490;9.222;2023-09-19T06:57:56;3.37;;;1.40;;
6485;SDS011;3276;48.490;9.222;2023-09-19T07:00:23;3.00;;;1.10;;
6485;SDS011;3276;48.490;9.222;2023-09-19T07:03:06;2.07;;;1.27;;
6485;SDS011;3276;48.490;9.222;2023-09-19T07:05:36;2.60;;;1.20;;
6485;SDS011;3276;48.490;9.222;2023-09-19T07:08:04;3.87;;;1.33;;
6485;SDS011;3276;48.490;9.222;2023-09-19T07:10:31;3.40;;;1.30;;
6485;SDS011;3276;48.490;9.222;2023-09-19T07:12:57;2.37;;;1.13;;
6485;SDS011;3276;48.490;9.222;2023-09-19T07:15:24;2.60;;;0.90;;
6485;SDS011;3276;48.490;9.222;2023-09-19T07:17:53;2.67;;;1.10;;
6485;SDS011;3276;48.490;9.222;2023-09-19T07:20:21;2.27;;;0.83;;
6485;SDS011;3276;48.490;9.222;2023-09-19T07:22:46;2.23;;;0.90;;
6485;SDS011;3276;48.490;9.222;2023-09-19T07:25:13;2.00;;;1.00;;
6485;SDS011;3276;48.490;9.222;2023-09-19T07:27:42;4.90;;;1.03;;
6485;SDS011;3276;48.490;9.222;2023-09-19T07:30:11;2.10;;;0.80;;
6485;SDS011;3276;48.490;9.222;2023-09-19T07:32:37;3.67;;;1.20;;
6485;SDS011;3276;48.490;9.222;2023-09-19T07:35:05;2.53;;;0.90;;
6485;SDS011;3276;48.490;9.222;2023-09-19T07:37:31;2.10;;;0.80;;
6485;SDS011;3276;48.490;9.222;2023-09-19T07:40:04;1.70;;;0.83;;
6485;SDS011;3276;48.490;9.222;2023-09-19T07:42:34;3.90;;;1.77;;
6485;SDS011;3276;48.490;9.222;2023-09-19T07:45:02;2.20;;;0.87;;
6485;SDS011;3276;48.490;9.222;2023-09-19T07:47:28;1.80;;;0.73;;
6485;SDS011;3276;48.490;9.222;2023-09-19T07:49:55;2.00;;;1.30;;
6485;SDS011;3276;48.490;9.222;2023-09-19T07:52:21;4.37;;;1.10;;
6485;SDS011;3276;48.490;9.222;2023-09-19T07:54:48;1.90;;;0.77;;
6485;SDS011;3276;48.490;9.222;2023-09-19T07:57:14;2.20;;;1.20;;
6485;SDS011;3276;48.490;9.222;2023-09-19T07:59:41;2.83;;;1.20;;
6485;SDS011;3276;48.490;9.222;2023-09-19T08:02:08;2.57;;;1.00;;
6485;SDS011;3276;48.490;9.222;2023-09-19T08:04:40;3.00;;;1.10;;
6485;SDS011;3276;48.490;9.222;2023-09-19T08:07:06;2.37;;;1.13;;
6485;SDS011;3276;48.490;9.222;2023-09-19T08:09:33;4.00;;;1.07;;
6485;SDS011;3276;48.490;9.222;2023-09-19T08:11:59;1.80;;;0.80;;
6485;SDS011;3276;48.490;9.222;2023-09-19T08:14:30;2.77;;;1.00;;
6485;SDS011;3276;48.490;9.222;2023-09-19T08:16:56;2.30;;;1.20;;
6485;SDS011;3276;48.490;9.222;2023-09-19T08:19:23;2.23;;;1.20;;
6485;SDS011;3276;48.490;9.222;2023-09-19T08:21:53;2.63;;;1.20;;
6485;SDS011;3276;48.490;9.222;2023-09-19T08:24:19;4.47;;;1.43;;
6485;SDS011;3276;48.490;9.222;2023-09-19T08:26:45;1.90;;;0.97;;
6485;SDS011;3276;48.490;9.222;2023-09-19T08:29:11;12.37;;;1.20;;
6485;SDS011;3276;48.490;9.222;2023-09-19T08:31:37;2.67;;;1.17;;
6485;SDS011;3276;48.490;9.222;2023-09-19T08:34:03;3.60;;;1.73;;
6485;SDS011;3276;48.490;9.222;2023-09-19T08:36:29;2.63;;;0.70;;
6485;SDS011;3276;48.490;9.222;2023-09-19T08:38:56;6.00;;;2.07;;
6485;SDS011;3276;48.490;9.222;2023-09-19T08:41:21;2.40;;;1.13;;
6485;SDS011;3276;48.490;9.222;2023-09-19T08:43:47;2.30;;;1.40;;
6485;SDS011;3276;48.490;9.222;2023-09-19T08:46:16;3.70;;;1.10;;
6485;SDS011;3276;48.490;9.222;2023-09-19T08:49:07;3.97;;;1.33;;
6485;SDS011;3276;48.490;9.222;2023-09-19T08:51:33;3.60;;;1.97;;
6485;SDS011;3276;48.490;9.222;2023-09-19T08:56:34;3.23;;;1.47;;
6485;SDS011;3276;48.490;9.222;2023-09-19T08:59:04;2.63;;;1.30;;
6485;SDS011;3276;48.490;9.222;2023-09-19T09:01:32;3.47;;;1.67;;
6485;SDS011;3276;48.490;9.222;2023-09-19T09:03:58;3.10;;;1.10;;
6485;SDS011;3276;48.490;9.222;2023-09-19T09:06:25;2.20;;;0.90;;
6485;SDS011;3276;48.490;9.222;2023-09-19T09:08:53;2.20;;;1.20;;
6485;SDS011;3276;48.490;9.222;2023-09-19T09:11:19;2.83;;;1.60;;
6485;SDS011;3276;48.490;9.222;2023-09-19T09:13:46;2.60;;;1.70;;
6485;SDS011;3276;48.490;9.222;2023-09-19T09:16:12;2.77;;;1.27;;
6485;SDS011;3276;48.490;9.222;2023-09-19T09:18:38;2.43;;;1.17;;
6485;SDS011;3276;48.490;9.222;2023-09-19T09:21:05;3.80;;;1.73;;
6485;SDS011;3276;48.490;9.222;2023-09-19T09:23:31;2.37;;;1.37;;
6485;SDS011;3276;48.490;9.222;2023-09-19T09:25:57;2.07;;;1.20;;
6485;SDS011;3276;48.490;9.222;2023-09-19T09:28:27;1.97;;;1.20;;
6485;SDS011;3276;48.490;9.222;2023-09-19T09:30:59;3.57;;;1.67;;
6485;SDS011;3276;48.490;9.222;2023-09-19T09:33:28;2.90;;;1.50;;
6485;SDS011;3276;48.490;9.222;2023-09-19T09:38:25;1.97;;;1.20;;
6485;SDS011;3276;48.490;9.222;2023-09-19T09:40:56;2.70;;;1.23;;
6485;SDS011;3276;48.490;9.222;2023-09-19T09:43:35;3.97;;;1.57;;
6485;SDS011;3276;48.490;9.222;2023-09-19T09:51:31;2.77;;;1.33;;
6485;SDS011;3276;48.490;9.222;2023-09-19T09:54:17;2.07;;;1.40;;
6485;SDS011;3276;48.490;9.222;2023-09-19T10:02:11;3.50;;;1.77;;
6485;SDS011;3276;48.490;9.222;2023-09-19T10:04:38;2.40;;;1.67;;
6485;SDS011;3276;48.490;9.222;2023-09-19T10:07:29;2.23;;;1.50;;
6485;SDS011;3276;48.490;9.222;2023-09-19T10:10:07;2.10;;;1.57;;
6485;SDS011;3276;48.490;9.222;2023-09-19T10:12:42;2.97;;;1.70;;
6485;SDS011;3276;48.490;9.222;2023-09-19T10:15:10;2.93;;;1.73;;
6485;SDS011;3276;48.490;9.222;2023-09-19T10:17:44;2.47;;;1.80;;
6485;SDS011;3276;48.490;9.222;2023-09-19T10:20:14;2.00;;;1.50;;
6485;SDS011;3276;48.490;9.222;2023-09-19T10:22:48;2.50;;;1.70;;
6485;SDS011;3276;48.490;9.222;2023-09-19T10:25:25;3.17;;;1.83;;
6485;SDS011;3276;48.490;9.222;2023-09-19T10:27:55;2.63;;;2.00;;
6485;SDS011;3276;48.490;9.222;2023-09-19T10:30:30;2.40;;;1.50;;
6485;SDS011;3276;48.490;9.222;2023-09-19T10:33:01;2.03;;;1.50;;
6485;SDS011;3276;48.490;9.222;2023-09-19T10:35:27;3.50;;;2.43;;
6485;SDS011;3276;48.490;9.222;2023-09-19T10:37:54;2.50;;;2.10;;
6485;SDS011;3276;48.490;9.222;2023-09-19T10:40:21;3.13;;;1.83;;
6485;SDS011;3276;48.490;9.222;2023-09-19T10:42:55;2.87;;;1.83;;
6485;SDS011;3276;48.490;9.222;2023-09-19T10:45:30;2.83;;;1.50;;
6485;SDS011;3276;48.490;9.222;2023-09-19T10:47:57;4.00;;;2.37;;
6485;SDS011;3276;48.490;9.222;2023-09-19T10:50:23;2.47;;;1.80;;
6485;SDS011;3276;48.490;9.222;2023-09-19T10:52:50;2.63;;;1.50;;
6485;SDS011;3276;48.490;9.222;2023-09-19T10:55:25;3.37;;;1.80;;
6485;SDS011;3276;48.490;9.222;2023-09-19T10:57:53;3.50;;;1.80;;
6485;SDS011;3276;48.490;9.222;2023-09-19T11:00:22;2.90;;;2.30;;
6485;SDS011;3276;48.490;9.222;2023-09-19T11:05:39;4.37;;;1.97;;
6485;SDS011;3276;48.490;9.222;2023-09-19T11:08:06;2.80;;;1.73;;
6485;SDS011;3276;48.490;9.222;2023-09-19T11:10:48;2.60;;;1.73;;
6485;SDS011;3276;48.490;9.222;2023-09-19T11:13:23;2.63;;;2.17;;
6485;SDS011;3276;48.490;9.222;2023-09-19T11:26:47;2.30;;;2.10;;
6485;SDS011;3276;48.490;9.222;2023-09-19T11:31:51;2.10;;;1.90;;
6485;SDS011;3276;48.490;9.222;2023-09-19T11:37:02;2.53;;;2.07;;
6485;SDS011;3276;48.490;9.222;2023-09-19T11:39:29;3.70;;;2.33;;
6485;SDS011;3276;48.490;9.222;2023-09-19T11:41:55;4.87;;;2.80;;
6485;SDS011;3276;48.490;9.222;2023-09-19T11:46:59;2.40;;;2.20;;
6485;SDS011;3276;48.490;9.222;2023-09-19T11:49:29;3.67;;;2.30;;
6485;SDS011;3276;48.490;9.222;2023-09-19T11:51:59;2.33;;;2.10;;
6485;SDS011;3276;48.490;9.222;2023-09-19T11:54:27;3.67;;;2.23;;
6485;SDS011;3276;48.490;9.222;2023-09-19T11:56:57;2.60;;;2.40;;
6485;SDS011;3276;48.490;9.222;2023-09-19T11:59:24;3.13;;;2.23;;
6485;SDS011;3276;48.490;9.222;2023-09-19T12:02:01;3.23;;;2.40;;
6485;SDS011;3276;48.490;9.222;2023-09-19T12:04:38;2.47;;;2.27;;
6485;SDS011;3276;48.490;9.222;2023-09-19T12:07:09;2.93;;;2.73;;
6485;SDS011;3276;48.490;9.222;2023-09-19T12:09:40;2.77;;;2.50;;
6485;SDS011;3276;48.490;9.222;2023-09-19T12:12:18;2.70;;;2.50;;
6485;SDS011;3276;48.490;9.222;2023-09-19T12:15:01;2.33;;;2.13;;
6485;SDS011;3276;48.490;9.222;2023-09-19T12:17:38;3.23;;;2.63;;
6485;SDS011;3276;48.490;9.222;2023-09-19T12:20:04;2.90;;;2.60;;
6485;SDS011;3276;48.490;9.222;2023-09-19T12:22:43;2.83;;;2.63;;
6485;SDS011;3276;48.490;9.222;2023-09-19T12:25:09;2.40;;;2.20;;
6485;SDS011;3276;48.490;9.222;2023-09-19T12:27:46;4.90;;;3.40;;
6485;SDS011;3276;48.490;9.222;2023-09-19T12:30:13;7.77;;;2.80;;
6485;SDS011;3276;48.490;9.222;2023-09-19T12:32:47;3.00;;;2.17;;
6485;SDS011;3276;48.490;9.222;2023-09-19T12:35:27;4.53;;;2.80;;
6485;SDS011;3276;48.490;9.222;2023-09-19T12:37:55;2.20;;;2.00;;
6485;SDS011;3276;48.490;9.222;2023-09-19T12:40:22;2.50;;;2.30;;
6485;SDS011;3276;48.490;9.222;2023-09-19T12:42:52;4.67;;;2.90;;
6485;SDS011;3276;48.490;9.222;2023-09-19T12:45:20;3.20;;;2.47;;
6485;SDS011;3276;48.490;9.222;2023-09-19T12:50:33;2.70;;;2.50;;
6485;SDS011;3276;48.490;9.222;2023-09-19T12:52:59;3.07;;;2.50;;
6485;SDS011;3276;48.490;9.222;2023-09-19T12:55:28;3.20;;;3.00;;
6485;SDS011;3276;48.490;9.222;2023-09-19T12:58:13;3.43;;;3.13;;
6485;SDS011;3276;48.490;9.222;2023-09-19T13:00:45;3.20;;;2.67;;
6485;SDS011;3276;48.490;9.222;2023-09-19T13:05:57;2.80;;;2.60;;
6485;SDS011;3276;48.490;9.222;2023-09-19T13:08:29;2.73;;;2.53;;
6485;SDS011;3276;48.490;9.222;2023-09-19T13:11:00;7.30;;;3.47;;
6485;SDS011;3276;48.490;9.222;2023-09-19T13:13:26;3.13;;;2.90;;
6485;SDS011;3276;48.490;9.222;2023-09-19T13:15:53;3.43;;;3.03;;
6485;SDS011;3276;48.490;9.222;2023-09-19T13:18:19;2.90;;;2.70;;
6485;SDS011;3276;48.490;9.222;2023-09-19T13:21:04;2.97;;;2.77;;
6485;SDS011;3276;48.490;9.222;2023-09-19T13:23:31;4.43;;;3.40;;
6485;SDS011;3276;48.490;9.222;2023-09-19T13:25:57;3.17;;;2.80;;
6485;SDS011;3276;48.490;9.222;2023-09-19T13:28:23;3.10;;;2.83;;
6485;SDS011;3276;48.490;9.222;2023-09-19T13:30:49;5.57;;;3.00;;
6485;SDS011;3276;48.490;9.222;2023-09-19T13:33:15;5.80;;;3.00;;
6485;SDS011;3276;48.490;9.222;2023-09-19T13:35:46;4.70;;;2.63;;
6485;SDS011;3276;48.490;9.222;2023-09-19T13:38:13;2.67;;;2.47;;
6485;SDS011;3276;48.490;9.222;2023-09-19T13:40:39;3.27;;;2.93;;
6485;SDS011;3276;48.490;9.222;2023-09-19T13:43:06;2.73;;;2.53;;
6485;SDS011;3276;48.490;9.222;2023-09-19T13:45:33;2.70;;;2.50;;
6485;SDS011;3276;48.490;9.222;2023-09-19T13:47:59;4.67;;;4.20;;
6485;SDS011;3276;48.490;9.222;2023-09-19T13:50:26;2.80;;;2.60;;
6485;SDS011;3276;48.490;9.222;2023-09-19T13:52:54;2.90;;;2.70;;
6485;SDS011;3276;48.490;9.222;2023-09-19T13:55:20;4.47;;;3.20;;
6485;SDS011;3276;48.490;9.222;2023-09-19T13:57:47;3.60;;;3.30;;
6485;SDS011;3276;48.490;9.222;2023-09-19T14:00:17;3.40;;;2.50;;
6485;SDS011;3276;48.490;9.222;2023-09-19T14:02:44;3.13;;;2.70;;
6485;SDS011;3276;48.490;9.222;2023-09-19T14:05:10;4.53;;;2.47;;
6485;SDS011;3276;48.490;9.222;2023-09-19T14:07:39;3.30;;;2.80;;
6485;SDS011;3276;48.490;9.222;2023-09-19T14:10:06;2.60;;;2.40;;
6485;SDS011;3276;48.490;9.222;2023-09-19T14:12:35;6.40;;;3.00;;
6485;SDS011;3276;48.490;9.222;2023-09-19T14:15:02;2.90;;;2.70;;
6485;SDS011;3276;48.490;9.222;2023-09-19T14:17:28;8.33;;;2.90;;
6485;SDS011;3276;48.490;9.222;2023-09-19T14:19:54;2.80;;;2.37;;
6485;SDS011;3276;48.490;9.222;2023-09-19T14:22:20;4.60;;;2.80;;
6485;SDS011;3276;48.490;9.222;2023-09-19T14:24:47;2.50;;;2.30;;
6485;SDS011;3276;48.490;9.222;2023-09-19T14:27:13;3.57;;;2.50;;
6485;SDS011;3276;48.490;9.222;2023-09-19T14:29:39;4.83;;;2.90;;
6485;SDS011;3276;48.490;9.222;2023-09-19T14:32:06;3.17;;;2.60;;
6485;SDS011;3276;48.490;9.222;2023-09-19T14:34:32;2.50;;;2.30;;
6485;SDS011;3276;48.490;9.222;2023-09-19T14:36:58;3.30;;;2.80;;
6485;SDS011;3276;48.490;9.222;2023-09-19T14:39:27;3.30;;;3.00;;
6485;SDS011;3276;48.490;9.222;2023-09-19T14:41:54;2.80;;;2.60;;
6485;SDS011;3276;48.490;9.222;2023-09-19T14:44:20;2.80;;;2.60;;
6485;SDS011;3276;48.490;9.222;2023-09-19T14:46:46;2.60;;;2.40;;
6485;SDS011;3276;48.490;9.222;2023-09-19T14:49:12;2.83;;;2.50;;
6485;SDS011;3276;48.490;9.222;2023-09-19T14:51:40;3.53;;;2.80;;
6485;SDS011;3276;48.490;9.222;2023-09-19T14:54:08;2.83;;;2.43;;
6485;SDS011;3276;48.490;9.222;2023-09-19T14:56:34;3.80;;;2.83;;
6485;SDS011;3276;48.490;9.222;2023-09-19T14:59:00;2.67;;;2.47;;
6485;SDS011;3276;48.490;9.222;2023-09-19T15:01:27;2.90;;;2.60;;
6485;SDS011;3276;48.490;9.222;2023-09-19T15:03:53;3.27;;;2.27;;
6485;SDS011;3276;48.490;9.222;2023-09-19T15:06:20;4.33;;;2.70;;
6485;SDS011;3276;48.490;9.222;2023-09-19T15:08:47;3.20;;;2.90;;
6485;SDS011;3276;48.490;9.222;2023-09-19T15:11:16;4.20;;;2.53;;
6485;SDS011;3276;48.490;9.222;2023-09-19T15:13:42;3.00;;;2.80;;
6485;SDS011;3276;48.490;9.222;2023-09-19T15:16:09;2.90;;;2.63;;
6485;SDS011;3276;48.490;9.222;2023-09-19T15:18:39;2.90;;;2.67;;
6485;SDS011;3276;48.490;9.222;2023-09-19T15:21:07;2.70;;;2.50;;
6485;SDS011;3276;48.490;9.222;2023-09-19T15:23:34;3.23;;;2.93;;
6485;SDS011;3276;48.490;9.222;2023-09-19T15:26:01;3.87;;;2.90;;
6485;SDS011;3276;48.490;9.222;2023-09-19T15:28:27;3.20;;;2.90;;
6485;SDS011;3276;48.490;9.222;2023-09-19T15:30:58;3.00;;;2.70;;
6485;SDS011;3276;48.490;9.222;2023-09-19T15:33:24;2.93;;;2.60;;
6485;SDS011;3276;48.490;9.222;2023-09-19T15:35:52;3.00;;;2.80;;
6485;SDS011;3276;48.490;9.222;2023-09-19T15:38:18;2.70;;;2.50;;
6485;SDS011;3276;48.490;9.222;2023-09-19T15:40:47;3.33;;;2.97;;
6485;SDS011;3276;48.490;9.222;2023-09-19T15:43:13;3.03;;;2.73;;
6485;SDS011;3276;48.490;9.222;2023-09-19T15:45:39;3.27;;;3.00;;
6485;SDS011;3276;48.490;9.222;2023-09-19T15:48:06;2.90;;;2.60;;
6485;SDS011;3276;48.490;9.222;2023-09-19T15:50:32;4.40;;;2.93;;
6485;SDS011;3276;48.490;9.222;2023-09-19T15:52:58;3.03;;;2.83;;
6485;SDS011;3276;48.490;9.222;2023-09-19T15:55:24;3.20;;;2.90;;
6485;SDS011;3276;48.490;9.222;2023-09-19T15:57:51;3.23;;;2.97;;
6485;SDS011;3276;48.490;9.222;2023-09-19T16:00:18;3.50;;;2.50;;
6485;SDS011;3276;48.490;9.222;2023-09-19T16:02:45;4.20;;;2.90;;
6485;SDS011;3276;48.490;9.222;2023-09-19T16:05:12;2.67;;;2.40;;
6485;SDS011;3276;48.490;9.222;2023-09-19T16:07:38;4.07;;;2.93;;
6485;SDS011;3276;48.490;9.222;2023-09-19T16:10:04;2.90;;;2.60;;
6485;SDS011;3276;48.490;9.222;2023-09-19T16:12:30;2.93;;;2.73;;
6485;SDS011;3276;48.490;9.222;2023-09-19T16:14:56;2.80;;;2.50;;
6485;SDS011;3276;48.490;9.222;2023-09-19T16:17:25;3.43;;;2.83;;
6485;SDS011;3276;48.490;9.222;2023-09-19T16:19:52;3.30;;;2.63;;
6485;SDS011;3276;48.490;9.222;2023-09-19T16:22:19;3.30;;;3.00;;
6485;SDS011;3276;48.490;9.222;2023-09-19T16:24:45;3.30;;;3.00;;